createdAt,value
2023-04-01T00:01:24.291Z,64.62
2023-04-01T00:03:51.414Z,64.30
2023-04-01T00:06:20.178Z,64.61
2023-04-01T00:08:47.704Z,64.71
2023-04-01T00:11:16.391Z,64.60
2023-04-01T00:13:43.924Z,64.55
2023-04-01T00:16:20.931Z,64.88
2023-04-01T00:18:48.853Z,64.76
2023-04-01T00:21:17.082Z,64.56
2023-04-01T00:23:44.749Z,64.53
2023-04-01T00:26:13.531Z,64.95
2023-04-01T00:28:41.182Z,65.02
2023-04-01T00:31:10.128Z,64.94
2023-04-01T00:33:37.080Z,64.99
2023-04-01T00:36:09.496Z,65.72
2023-04-01T00:38:37.319Z,66.16
2023-04-01T00:41:04.741Z,66.04
2023-04-01T00:43:31.740Z,65.98
2023-04-01T00:45:58.937Z,65.92
2023-04-01T00:48:37.182Z,65.80
2023-04-01T00:51:09.178Z,65.79
2023-04-01T00:53:39.331Z,65.71
2023-04-01T00:56:12.734Z,65.78
2023-04-01T00:58:44.808Z,65.90
2023-04-01T01:01:12.344Z,65.67
2023-04-01T01:03:39.145Z,65.26
2023-04-01T01:06:26.968Z,65.74
2023-04-01T01:09:04.925Z,66.01
2023-04-01T01:12:06.053Z,66.28
2023-04-01T01:14:51.723Z,66.41
2023-04-01T01:17:34.864Z,66.17
2023-04-01T01:20:26.412Z,66.05
2023-04-01T01:22:56.952Z,65.83
2023-04-01T01:25:40.494Z,65.85
2023-04-01T01:28:27.691Z,65.79
2023-04-01T01:31:23.662Z,65.77
2023-04-01T01:34:31.486Z,65.80
2023-04-01T01:37:07.965Z,66.16
2023-04-01T01:39:37.949Z,65.94
2023-04-01T01:42:09.480Z,66.25
2023-04-01T01:44:39.199Z,66.37
2023-04-01T01:47:06.989Z,66.64
2023-04-01T01:49:36.654Z,66.53
2023-04-01T01:52:04.865Z,66.00
2023-04-01T01:54:31.777Z,66.07
2023-04-01T01:57:08.160Z,65.92
2023-04-01T01:59:39.614Z,65.96
2023-04-01T02:02:09.604Z,66.02
2023-04-01T02:04:40.560Z,65.90
2023-04-01T02:07:13.436Z,65.74
2023-04-01T02:09:40.454Z,65.83
2023-04-01T02:12:09.541Z,65.69
2023-04-01T02:14:54.983Z,65.88
2023-04-01T02:17:24.919Z,65.88
2023-04-01T02:20:00.346Z,65.78
2023-04-01T02:22:30.764Z,65.99
2023-04-01T02:25:07.712Z,66.02
2023-04-01T02:27:34.741Z,66.03
2023-04-01T02:30:01.683Z,66.25
2023-04-01T02:32:30.670Z,66.26
2023-04-01T02:34:57.584Z,66.26
2023-04-01T02:37:24.329Z,66.15
2023-04-01T02:39:51.277Z,66.17
2023-04-01T02:42:17.965Z,66.04
2023-04-01T02:44:44.643Z,66.17
2023-04-01T02:47:11.318Z,66.36
2023-04-01T02:49:38.058Z,66.28
2023-04-01T02:52:05.047Z,66.40
2023-04-01T02:54:31.732Z,66.33
2023-04-01T02:56:58.506Z,66.17
2023-04-01T02:59:25.300Z,65.98
2023-04-01T03:01:51.989Z,65.73
2023-04-01T03:04:18.615Z,65.82
2023-04-01T03:06:45.399Z,65.95
2023-04-01T03:09:12.521Z,66.25
2023-04-01T03:11:39.192Z,66.48
2023-04-01T03:14:06.010Z,66.49
2023-04-01T03:16:32.701Z,66.71
2023-04-01T03:19:00.878Z,67.31
2023-04-01T03:21:28.025Z,67.29
2023-04-01T03:23:54.818Z,67.35
2023-04-01T03:26:22.698Z,67.16
2023-04-01T03:28:49.717Z,67.04
2023-04-01T03:31:17.306Z,66.70
2023-04-01T03:33:48.422Z,66.62
2023-04-01T03:36:15.312Z,66.83
2023-04-01T03:38:43.295Z,66.75
2023-04-01T03:41:17.002Z,66.72
2023-04-01T03:43:45.442Z,66.70
2023-04-01T03:46:12.700Z,66.56
2023-04-01T03:48:39.588Z,66.56
2023-04-01T03:51:09.406Z,66.34
2023-04-01T03:53:36.586Z,66.49
2023-04-01T03:56:09.249Z,66.57
2023-04-01T03:58:36.419Z,66.41
2023-04-01T04:01:03.538Z,66.56
2023-04-01T04:03:31.141Z,66.78
2023-04-01T04:05:58.323Z,66.68
2023-04-01T04:08:24.995Z,66.56
2023-04-01T04:10:58.032Z,66.47
2023-04-01T04:13:25.387Z,66.21
2023-04-01T04:15:57.420Z,66.10
2023-04-01T04:18:24.088Z,66.14
2023-04-01T04:20:52.219Z,66.10
2023-04-01T04:23:20.003Z,66.11
2023-04-01T04:26:04.877Z,66.09
2023-04-01T04:28:32.415Z,66.20
2023-04-01T04:30:59.825Z,66.08
2023-04-01T04:33:28.438Z,66.31
2023-04-01T04:35:59.793Z,66.54
2023-04-01T04:38:27.670Z,66.77
2023-04-01T04:40:55.404Z,66.79
2023-04-01T04:43:22.340Z,66.60
2023-04-01T04:45:49.146Z,66.63
2023-04-01T04:48:19.950Z,66.35
2023-04-01T04:50:49.798Z,66.15
2023-04-01T04:53:18.720Z,66.45
2023-04-01T04:55:47.992Z,66.59
2023-04-01T04:58:24.667Z,66.71
2023-04-01T05:00:51.547Z,66.71
2023-04-01T05:03:22.895Z,66.81
2023-04-01T05:05:53.160Z,67.08
2023-04-01T05:08:20.474Z,66.92
2023-04-01T05:10:47.385Z,67.09
2023-04-01T05:13:14.003Z,67.02
2023-04-01T05:15:41.518Z,67.03
2023-04-01T05:18:08.333Z,66.93
2023-04-01T05:20:35.180Z,67.10
2023-04-01T05:23:02.455Z,67.22
2023-04-01T05:25:29.694Z,67.20
2023-04-01T05:27:56.626Z,67.23
2023-04-01T05:30:23.863Z,66.84
2023-04-01T05:33:29.887Z,66.83
2023-04-01T05:35:57.198Z,67.02
2023-04-01T05:38:23.934Z,67.12
2023-04-01T05:40:50.642Z,67.15
2023-04-01T05:43:17.833Z,67.12
2023-04-01T05:45:46.266Z,66.59
2023-04-01T05:48:13.049Z,66.13
2023-04-01T05:50:42.310Z,65.48
2023-04-01T05:53:09.796Z,65.17
2023-04-01T05:55:37.463Z,65.15
2023-04-01T05:58:04.547Z,64.94
2023-04-01T06:00:31.870Z,64.89
2023-04-01T06:03:01.732Z,64.81
2023-04-01T06:05:31.314Z,64.60
2023-04-01T06:08:19.786Z,64.50
2023-04-01T06:11:29.179Z,64.07
2023-04-01T06:14:17.733Z,63.96
2023-04-01T06:17:11.615Z,63.34
2023-04-01T06:19:56.373Z,63.14
2023-04-01T06:22:44.401Z,63.21
2023-04-01T06:25:34.012Z,63.44
2023-04-01T06:28:52.598Z,63.56
2023-04-01T06:31:35.443Z,62.88
2023-04-01T06:34:37.773Z,62.87
2023-04-01T06:37:17.945Z,62.87
2023-04-01T06:40:22.829Z,62.86
2023-04-01T06:43:27.006Z,62.72
2023-04-01T06:46:39.828Z,62.60
2023-04-01T06:49:38.567Z,62.12
2023-04-01T06:52:47.742Z,62.19
2023-04-01T06:55:47.182Z,61.95
2023-04-01T06:58:28.352Z,61.94
2023-04-01T07:00:59.387Z,61.96
2023-04-01T07:03:36.994Z,62.48
2023-04-01T07:06:10.263Z,62.25
2023-04-01T07:08:43.113Z,60.78
2023-04-01T07:11:15.341Z,60.45
2023-04-01T07:14:17.297Z,59.78
2023-04-01T07:16:57.260Z,59.73
2023-04-01T07:19:43.466Z,59.76
2023-04-01T07:22:36.999Z,59.91
2023-04-01T07:25:17.789Z,59.66
2023-04-01T07:27:48.420Z,59.81
2023-04-01T07:30:17.754Z,60.21
2023-04-01T07:33:05.078Z,60.27
2023-04-01T07:35:35.822Z,60.60
2023-04-01T07:38:27.928Z,60.39
2023-04-01T07:41:13.579Z,59.95
2023-04-01T07:44:02.972Z,59.99
2023-04-01T07:46:46.537Z,60.22
2023-04-01T07:49:22.212Z,60.53
2023-04-01T07:52:01.172Z,60.31
2023-04-01T07:54:56.472Z,60.25
2023-04-01T07:57:32.064Z,59.99
2023-04-01T08:00:09.337Z,59.90
2023-04-01T08:03:02.479Z,59.84
2023-04-01T08:05:38.774Z,59.80
2023-04-01T08:08:24.490Z,60.05
2023-04-01T08:11:31.481Z,59.75
2023-04-01T08:14:31.382Z,60.16
2023-04-01T08:18:02.641Z,59.84
2023-04-01T08:20:51.525Z,59.89
2023-04-01T08:23:23.769Z,59.54
2023-04-01T08:25:58.940Z,59.51
2023-04-01T08:28:35.722Z,59.51
2023-04-01T08:31:28.674Z,59.30
2023-04-01T08:33:56.628Z,59.16
2023-04-01T08:36:30.622Z,59.30
2023-04-01T08:39:16.576Z,59.25
2023-04-01T08:41:52.993Z,58.84
2023-04-01T08:45:01.534Z,58.67
2023-04-01T08:48:11.921Z,58.53
2023-04-01T08:51:23.982Z,58.21
2023-04-01T08:54:08.313Z,57.85
2023-04-01T08:56:56.944Z,58.19
2023-04-01T08:59:50.832Z,57.59
2023-04-01T09:03:15.259Z,57.05
2023-04-01T09:06:16.504Z,57.05
2023-04-01T09:09:22.275Z,56.88
2023-04-01T09:12:09.498Z,56.35
2023-04-01T09:15:17.065Z,56.23
2023-04-01T09:18:03.595Z,55.86
2023-04-01T09:20:51.657Z,55.82
2023-04-01T09:23:35.118Z,55.94
2023-04-01T09:26:16.929Z,55.57
2023-04-01T09:29:02.404Z,54.94
2023-04-01T09:32:03.386Z,54.47
2023-04-01T09:35:04.250Z,53.88
2023-04-01T09:37:49.212Z,53.84
2023-04-01T09:40:45.365Z,53.98
2023-04-01T09:43:47.459Z,54.34
2023-04-01T09:46:33.635Z,54.16
2023-04-01T09:49:03.483Z,53.95
2023-04-01T09:51:55.854Z,54.00
2023-04-01T09:54:25.750Z,53.34
2023-04-01T09:57:06.495Z,52.63
2023-04-01T10:00:01.738Z,51.43
2023-04-01T10:02:48.522Z,50.38
2023-04-01T10:05:42.432Z,49.72
2023-04-01T10:08:53.085Z,49.54
2023-04-01T10:11:58.354Z,48.92
2023-04-01T10:14:37.627Z,49.18
2023-04-01T10:17:21.805Z,49.45
2023-04-01T10:20:13.615Z,48.79
2023-04-01T10:22:46.983Z,48.49
2023-04-01T10:25:32.166Z,48.34
2023-04-01T10:28:31.790Z,48.32
2023-04-01T10:31:42.357Z,48.30
2023-04-01T10:34:33.855Z,48.11
2023-04-01T10:37:38.792Z,47.58
2023-04-01T10:40:37.373Z,47.17
2023-04-01T10:44:07.211Z,47.60
2023-04-01T10:46:49.516Z,46.72
2023-04-01T10:49:19.665Z,46.84
2023-04-01T10:52:13.295Z,46.86
2023-04-01T10:55:37.716Z,46.31
2023-04-01T10:59:05.208Z,45.00
2023-04-01T11:02:23.948Z,45.37
2023-04-01T11:05:21.452Z,44.61
2023-04-01T11:08:38.432Z,44.42
2023-04-01T11:11:20.272Z,44.37
2023-04-01T11:14:28.552Z,43.78
2023-04-01T11:17:04.249Z,43.99
2023-04-01T11:19:50.295Z,44.52
2023-04-01T11:22:50.052Z,43.81
2023-04-01T11:25:45.324Z,43.46
2023-04-01T11:28:56.176Z,42.75
2023-04-01T11:31:41.735Z,42.94
2023-04-01T11:34:27.465Z,42.42
2023-04-01T11:37:25.437Z,42.42
2023-04-01T11:40:49.572Z,42.39
2023-04-01T11:44:22.633Z,42.02
2023-04-01T11:47:57.509Z,42.17
2023-04-01T11:50:49.010Z,41.84
2023-04-01T11:53:34.706Z,41.87
2023-04-01T11:56:19.683Z,41.24
2023-04-01T11:58:58.609Z,40.68
2023-04-01T12:01:28.081Z,40.73
2023-04-01T12:04:10.150Z,40.53
2023-04-01T12:06:47.254Z,40.73
2023-04-01T12:09:26.170Z,40.12
2023-04-01T12:12:11.990Z,40.33
2023-04-01T12:15:00.748Z,40.56
2023-04-01T12:17:58.673Z,40.19
2023-04-01T12:20:37.346Z,40.12
2023-04-01T12:23:22.256Z,40.05
2023-04-01T12:26:17.418Z,39.33
2023-04-01T12:29:41.499Z,39.12
2023-04-01T12:32:26.160Z,38.62
2023-04-01T12:35:07.962Z,38.23
2023-04-01T12:37:49.248Z,37.38
2023-04-01T12:40:43.697Z,36.13
2023-04-01T12:43:35.237Z,37.36
2023-04-01T12:46:11.427Z,36.67
2023-04-01T12:48:57.939Z,35.68
2023-04-01T12:51:37.265Z,35.08
2023-04-01T12:54:13.994Z,35.43
2023-04-01T12:56:55.628Z,36.13
2023-04-01T12:59:40.371Z,35.94
2023-04-01T13:02:48.630Z,35.23
2023-04-01T13:05:26.259Z,35.31
2023-04-01T13:08:17.802Z,35.10
2023-04-01T13:11:03.642Z,34.53
2023-04-01T13:13:45.826Z,34.00
2023-04-01T13:16:24.206Z,33.67
2023-04-01T13:18:56.974Z,33.56
2023-04-01T13:21:34.018Z,34.33
2023-04-01T13:24:22.333Z,34.29
2023-04-01T13:26:51.927Z,31.83
2023-04-01T13:29:26.952Z,31.10
2023-04-01T13:35:42.682Z,30.13
2023-04-01T13:38:25.921Z,29.63
2023-04-01T13:41:12.340Z,29.80
2023-04-01T13:43:46.183Z,30.65
2023-04-01T13:46:22.283Z,30.87
2023-04-01T13:48:58.759Z,30.04
2023-04-01T13:51:37.537Z,30.08
2023-04-01T13:54:21.771Z,30.27
2023-04-01T13:57:20.271Z,30.13
2023-04-01T14:00:08.260Z,30.64
2023-04-01T14:03:03.008Z,30.27
2023-04-01T14:05:45.451Z,30.70
2023-04-01T14:08:37.870Z,31.14
2023-04-01T14:11:07.653Z,31.09
2023-04-01T14:14:14.233Z,30.96
2023-04-01T14:17:08.134Z,31.66
2023-04-01T14:20:19.324Z,31.74
2023-04-01T14:22:51.974Z,32.40
2023-04-01T14:25:31.210Z,32.11
2023-04-01T14:28:43.423Z,31.68
2023-04-01T14:31:28.136Z,31.63
2023-04-01T14:34:17.021Z,31.94
2023-04-01T14:36:59.634Z,31.87
2023-04-01T14:39:53.820Z,32.09
2023-04-01T14:42:29.601Z,33.47
2023-04-01T14:45:19.037Z,33.73
2023-04-01T14:48:28.630Z,33.45
2023-04-01T14:51:03.048Z,32.73
2023-04-01T14:53:36.123Z,33.24
2023-04-01T14:56:04.065Z,33.32
2023-04-01T14:58:58.396Z,33.73
2023-04-01T15:01:59.733Z,33.74
2023-04-01T15:04:45.235Z,34.29
2023-04-01T15:07:36.498Z,33.57
2023-04-01T15:10:10.681Z,33.50
2023-04-01T15:13:00.806Z,32.76
2023-04-01T15:15:58.188Z,32.62
2023-04-01T15:19:03.329Z,32.38
2023-04-01T15:22:05.320Z,32.72
2023-04-01T15:25:14.584Z,32.57
2023-04-01T15:28:07.504Z,32.06
2023-04-01T15:30:38.940Z,32.15
2023-04-01T15:33:11.953Z,32.33
2023-04-01T15:36:07.711Z,32.14
2023-04-01T15:38:46.704Z,32.47
2023-04-01T15:41:23.320Z,32.24
2023-04-01T15:43:54.875Z,32.61
2023-04-01T15:46:50.097Z,32.75
2023-04-01T15:49:24.313Z,33.16
2023-04-01T15:52:28.881Z,33.37
2023-04-01T15:55:14.539Z,33.41
2023-04-01T15:57:53.615Z,33.28
2023-04-01T16:00:30.776Z,32.68
2023-04-01T16:03:22.485Z,32.52
2023-04-01T16:05:55.145Z,32.69
2023-04-01T16:08:43.545Z,33.26
2023-04-01T16:11:27.197Z,33.13
2023-04-01T16:14:12.487Z,32.85
2023-04-01T16:16:55.007Z,32.80
2023-04-01T16:19:34.054Z,32.85
2023-04-01T16:22:23.702Z,32.57
2023-04-01T16:24:59.426Z,32.55
2023-04-01T16:27:30.637Z,32.80
2023-04-01T16:30:04.581Z,32.81
2023-04-01T16:32:42.398Z,32.74
2023-04-01T16:35:24.253Z,32.78
2023-04-01T16:37:57.078Z,32.89
2023-04-01T16:40:45.401Z,32.42
2023-04-01T16:43:43.542Z,31.83
2023-04-01T16:46:41.500Z,31.17
2023-04-01T16:49:14.221Z,32.28
2023-04-01T16:51:57.423Z,32.21
2023-04-01T16:54:32.378Z,31.95
2023-04-01T16:57:11.754Z,31.58
2023-04-01T17:00:01.995Z,32.46
2023-04-01T17:02:51.205Z,32.76
2023-04-01T17:05:18.219Z,33.30
2023-04-01T17:08:02.676Z,33.83
2023-04-01T17:11:01.410Z,34.42
2023-04-01T17:13:41.849Z,34.73
2023-04-01T17:16:23.541Z,34.45
2023-04-01T17:19:22.085Z,34.70
2023-04-01T17:21:56.960Z,34.70
2023-04-01T17:24:26.597Z,34.81
2023-04-01T17:27:02.653Z,34.76
2023-04-01T17:30:03.348Z,34.90
2023-04-01T17:33:03.685Z,34.93
2023-04-01T17:35:44.102Z,34.75
2023-04-01T17:38:54.709Z,35.14
2023-04-01T17:41:27.978Z,35.57
2023-04-01T17:44:10.359Z,35.60
2023-04-01T17:46:43.868Z,35.67
2023-04-01T17:49:32.351Z,35.94
2023-04-01T17:52:20.935Z,37.08
2023-04-01T17:55:11.283Z,37.38
2023-04-01T17:57:48.208Z,37.90
2023-04-01T18:00:50.665Z,38.22
2023-04-01T18:03:29.032Z,38.38
2023-04-01T18:05:58.825Z,38.53
2023-04-01T18:08:47.188Z,38.74
2023-04-01T18:11:26.644Z,38.91
2023-04-01T18:14:18.399Z,39.04
2023-04-01T18:17:05.779Z,39.38
2023-04-01T18:20:03.049Z,39.65
2023-04-01T18:22:54.990Z,41.72
2023-04-01T18:25:39.204Z,40.16
2023-04-01T18:28:31.539Z,39.96
2023-04-01T18:31:07.100Z,39.94
2023-04-01T18:33:58.573Z,40.15
2023-04-01T18:36:45.670Z,40.36
2023-04-01T18:39:25.968Z,40.10
2023-04-01T18:42:14.793Z,40.58
2023-04-01T18:44:51.360Z,40.49
2023-04-01T18:47:39.534Z,40.72
2023-04-01T18:50:27.466Z,40.66
2023-04-01T18:53:16.919Z,41.00
2023-04-01T18:55:55.584Z,41.15
2023-04-01T18:58:32.285Z,41.28
2023-04-01T19:01:26.832Z,41.33
2023-04-01T19:04:12.131Z,41.33
2023-04-01T19:06:51.659Z,41.54
2023-04-01T19:09:33.092Z,41.70
2023-04-01T19:12:14.809Z,41.65
2023-04-01T19:15:09.512Z,41.93
2023-04-01T19:18:07.285Z,41.87
2023-04-01T19:20:47.235Z,41.93
2023-04-01T19:23:36.213Z,41.92
2023-04-01T19:26:07.646Z,42.18
2023-04-01T19:28:37.357Z,42.08
2023-04-01T19:31:31.581Z,41.77
2023-04-01T19:34:21.775Z,41.60
2023-04-01T19:37:06.019Z,41.37
2023-04-01T19:39:48.456Z,41.35
2023-04-01T19:42:42.951Z,41.45
2023-04-01T19:45:37.490Z,41.50
2023-04-01T19:48:33.612Z,42.20
2023-04-01T19:51:04.350Z,41.78
2023-04-01T19:53:46.243Z,41.94
2023-04-01T19:56:22.832Z,42.14
2023-04-01T19:58:53.587Z,42.16
2023-04-01T20:01:44.694Z,42.35
2023-04-01T20:04:23.752Z,42.15
2023-04-01T20:07:28.104Z,42.07
2023-04-01T20:10:04.191Z,42.36
2023-04-01T20:12:37.273Z,42.37
2023-04-01T20:15:26.701Z,42.73
2023-04-01T20:17:56.542Z,43.17
2023-04-01T20:20:28.181Z,42.95
2023-04-01T20:23:29.847Z,43.04
2023-04-01T20:26:11.444Z,43.97
2023-04-01T20:28:46.486Z,43.55
2023-04-01T20:31:27.463Z,43.48
2023-04-01T20:34:23.997Z,43.61
2023-04-01T20:37:12.587Z,44.03
2023-04-01T20:39:58.108Z,44.22
2023-04-01T20:42:54.458Z,44.15
2023-04-01T20:46:09.111Z,44.57
2023-04-01T20:48:48.402Z,45.32
2023-04-01T20:51:19.271Z,47.90
2023-04-01T20:54:23.115Z,49.68
2023-04-01T20:57:06.888Z,51.44
2023-04-01T20:59:58.680Z,52.95
2023-04-01T21:02:44.157Z,53.21
2023-04-01T21:05:29.635Z,52.93
2023-04-01T21:08:25.553Z,52.99
2023-04-01T21:11:01.395Z,53.61
2023-04-01T21:13:47.579Z,53.92
2023-04-01T21:16:39.003Z,54.29
2023-04-01T21:19:14.660Z,54.48
2023-04-01T21:22:14.770Z,55.49
2023-04-01T21:24:56.548Z,55.56
2023-04-01T21:27:35.199Z,56.30
2023-04-01T21:30:31.045Z,56.43
2023-04-01T21:33:09.750Z,57.15
2023-04-01T21:36:04.609Z,57.75
2023-04-01T21:38:56.293Z,57.64
2023-04-01T21:41:41.920Z,57.59
2023-04-01T21:44:39.767Z,58.35
2023-04-01T21:47:37.372Z,58.02
2023-04-01T21:50:20.927Z,58.23
2023-04-01T21:53:06.484Z,58.08
2023-04-01T21:56:11.261Z,58.66
2023-04-01T21:59:18.991Z,58.60
2023-04-01T22:02:12.506Z,58.45
2023-04-01T22:04:42.148Z,58.61
2023-04-01T22:07:15.917Z,58.43
2023-04-01T22:10:22.528Z,58.41
2023-04-01T22:13:17.870Z,58.51
2023-04-01T22:16:10.780Z,58.61
2023-04-01T22:18:44.958Z,58.45
2023-04-01T22:21:53.151Z,58.90
2023-04-01T22:24:42.718Z,58.90
2023-04-01T22:27:31.961Z,58.79
2023-04-01T22:30:35.079Z,58.95
2023-04-01T22:33:19.682Z,59.10
2023-04-01T22:35:52.405Z,59.16
2023-04-01T22:38:47.124Z,59.00
2023-04-01T22:41:20.172Z,58.88
2023-04-01T22:43:48.864Z,58.71
2023-04-01T22:46:44.890Z,58.37
2023-04-01T22:49:29.671Z,57.76
2023-04-01T22:52:12.832Z,57.31
2023-04-01T22:54:47.917Z,56.80
2023-04-01T22:57:42.974Z,56.21
2023-04-01T23:00:21.196Z,55.75
2023-04-01T23:03:10.002Z,55.09
2023-04-01T23:05:43.904Z,54.86
2023-04-01T23:08:32.514Z,54.82
2023-04-01T23:11:05.184Z,54.83
2023-04-01T23:13:49.384Z,54.87
2023-04-01T23:16:18.288Z,54.97
2023-04-01T23:18:58.371Z,54.90
2023-04-01T23:21:31.919Z,54.94
2023-04-01T23:24:19.129Z,55.05
2023-04-01T23:26:48.857Z,55.18
2023-04-01T23:29:18.708Z,54.94
2023-04-01T23:31:58.411Z,54.81
2023-04-01T23:34:49.930Z,54.84
2023-04-01T23:37:19.764Z,55.08
2023-04-01T23:39:50.074Z,55.13
2023-04-01T23:42:20.950Z,55.37
2023-04-01T23:44:50.763Z,55.24
2023-04-01T23:47:22.241Z,55.30
2023-04-01T23:49:56.401Z,55.38
2023-04-01T23:52:36.021Z,55.36
2023-04-01T23:55:18.081Z,55.31
2023-04-01T23:58:07.440Z,55.34
